Time;durP1;ratioP1;P1;durP2;ratioP2;P2;SDS_P1;SDS_P2;PMS_P1;PMS_P2;Temp;Humidity;BMP_temperature;BMP_pressure;BME280_temperature;BME280_humidity;BME280_pressure;Samples;Min_cycle;Max_cycle;Signal;HPM_P1;HPM_P2
2023/08/19 00:01:29;;;;;;;7.25;5.03;;;;;;;20.04;100.00;94918.44;5082212;28;20488;-81
2023/08/19 00:03:55;;;;;;;6.85;4.85;;;;;;;20.03;100.00;94911.63;5083500;28;20024;-80
2023/08/19 00:06:40;;;;;;;6.95;5.20;;;;;;;19.80;100.00;94923.75;5081996;28;20038;-82
2023/08/19 00:09:09;;;;;;;6.70;5.28;;;;;;;19.87;100.00;94918.38;5064786;28;20576;-84
2023/08/19 00:11:36;;;;;;;7.57;5.03;;;;;;;19.63;100.00;94925.44;5082093;28;20063;-85
2023/08/19 00:14:05;;;;;;;8.23;5.03;;;;;;;19.40;100.00;94926.19;5064890;28;20035;-82
2023/08/19 00:16:31;;;;;;;5.53;4.97;;;;;;;19.45;100.00;94923.69;5082605;28;20719;-87
2023/08/19 00:18:57;;;;;;;8.50;5.43;;;;;;;19.58;100.00;94914.81;5081973;28;20366;-82
2023/08/19 00:21:22;;;;;;;6.70;5.15;;;;;;;19.29;100.00;94926.16;5081661;28;20594;-82
2023/08/19 00:23:48;;;;;;;6.28;4.80;;;;;;;19.26;100.00;94935.28;5081693;28;20040;-83
2023/08/19 00:26:14;;;;;;;5.90;4.47;;;;;;;19.46;100.00;94925.28;5081757;28;20111;-82
2023/08/19 00:28:40;;;;;;;8.35;4.80;;;;;;;19.17;100.00;94927.94;5081828;28;20027;-82
2023/08/19 00:31:08;;;;;;;7.95;4.85;;;;;;;19.35;100.00;94933.13;5081370;28;20368;-83
2023/08/19 00:33:34;;;;;;;8.65;4.47;;;;;;;19.37;100.00;94933.69;5082165;28;20485;-83
2023/08/19 00:36:00;;;;;;;5.93;4.75;;;;;;;19.30;100.00;94933.78;5064245;28;20032;-84
2023/08/19 00:38:25;;;;;;;5.93;5.40;;;;;;;19.38;100.00;94930.03;5083190;28;20030;-84
2023/08/19 00:40:51;;;;;;;8.10;4.68;;;;;;;19.18;100.00;94932.16;5060955;28;20024;-83
2023/08/19 00:43:16;;;;;;;7.25;5.00;;;;;;;19.09;100.00;94939.56;5072355;28;20102;-84
2023/08/19 00:45:46;;;;;;;5.40;4.90;;;;;;;19.09;100.00;94942.19;5063571;28;20032;-85
2023/08/19 00:48:12;;;;;;;5.97;5.28;;;;;;;19.11;100.00;94939.31;5081975;28;20031;-85
2023/08/19 00:50:39;;;;;;;5.15;4.75;;;;;;;19.01;100.00;94937.22;5081555;28;20405;-82
2023/08/19 00:53:05;;;;;;;7.78;4.95;;;;;;;18.85;100.00;94946.53;5081301;28;20097;-83
2023/08/19 00:55:31;;;;;;;6.20;5.35;;;;;;;18.91;100.00;94950.88;5067422;28;20504;-83
2023/08/19 00:58:03;;;;;;;8.13;4.85;;;;;;;18.94;100.00;94941.78;5081033;28;20553;-83
2023/08/19 01:00:32;;;;;;;7.30;4.82;;;;;;;18.95;100.00;94932.88;5081097;28;20050;-85
2023/08/19 01:03:01;;;;;;;;;;;;;;;18.98;100.00;94929.81;5062319;28;20910;-83
2023/08/19 01:06:01;;;;;;;6.18;4.70;;;;;;;19.02;100.00;94920.47;5055751;28;20035;-85
2023/08/19 01:08:42;;;;;;;5.05;4.60;;;;;;;18.99;100.00;94917.47;5077411;28;20067;-83
2023/08/19 01:11:40;;;;;;;5.60;5.10;;;;;;;18.62;100.00;94945.63;5080767;28;20051;-84
2023/08/19 01:14:24;;;;;;;7.05;5.85;;;;;;;18.82;100.00;94948.78;5069491;28;20124;-85
2023/08/19 01:16:52;;;;;;;6.03;5.30;;;;;;;18.63;100.00;94941.97;5081119;28;20019;-85
2023/08/19 01:19:38;;;;;;;5.72;5.32;;;;;;;18.59;100.00;94959.97;5081111;28;20055;-85
2023/08/19 01:22:05;;;;;;;8.50;5.40;;;;;;;18.66;100.00;94946.78;5079759;28;20036;-85
2023/08/19 01:24:38;;;;;;;8.20;5.47;;;;;;;18.66;100.00;94952.03;5080945;28;20476;-84
2023/08/19 01:27:04;;;;;;;10.68;5.05;;;;;;;18.57;100.00;94940.22;5080207;28;20039;-81
2023/08/19 01:29:30;;;;;;;6.10;5.50;;;;;;;18.40;100.00;94942.59;5081075;28;20139;-82
2023/08/19 01:31:56;;;;;;;9.70;5.38;;;;;;;18.37;100.00;94949.09;5079874;28;20109;-84
2023/08/19 01:34:24;;;;;;;11.73;5.38;;;;;;;18.37;100.00;94937.78;5080726;28;20028;-83
2023/08/19 01:36:56;;;;;;;11.43;5.60;;;;;;;18.25;100.00;94935.09;5080395;28;20028;-82
2023/08/19 01:39:22;;;;;;;8.45;5.25;;;;;;;18.24;100.00;94938.75;5080666;28;20040;-83
2023/08/19 01:41:49;;;;;;;6.63;5.20;;;;;;;17.79;100.00;94951.28;5081941;28;20024;-83
2023/08/19 01:44:15;;;;;;;5.53;5.05;;;;;;;17.75;100.00;94997.28;5079806;28;20405;-84
2023/08/19 01:46:40;;;;;;;7.38;5.60;;;;;;;17.76;100.00;94996.25;5060442;28;20036;-84
2023/08/19 01:49:05;;;;;;;5.88;5.40;;;;;;;17.68;100.00;94995.72;5076540;28;20073;-84
2023/08/19 01:51:31;;;;;;;6.00;5.43;;;;;;;17.92;100.00;94989.66;5080711;28;20020;-84
2023/08/19 01:53:56;;;;;;;6.22;5.60;;;;;;;18.03;100.00;94967.19;5081140;28;20547;-83
2023/08/19 01:56:22;;;;;;;5.55;4.90;;;;;;;17.91;100.00;94972.34;5080387;28;20043;-85
2023/08/19 01:58:47;;;;;;;6.10;5.60;;;;;;;17.96;100.00;94976.94;5067333;28;20031;-83
2023/08/19 02:01:13;;;;;;;6.13;5.63;;;;;;;17.99;100.00;94966.81;5078257;28;20032;-83
2023/08/19 02:03:39;;;;;;;5.35;4.95;;;;;;;17.95;100.00;94964.88;5080093;28;20035;-87
2023/08/19 02:06:04;;;;;;;8.27;5.60;;;;;;;17.75;100.00;94980.75;5062253;28;20032;-83
2023/08/19 02:08:29;;;;;;;6.97;5.47;;;;;;;17.88;100.00;94976.19;5080416;28;20459;-83
2023/08/19 02:10:56;;;;;;;5.72;5.22;;;;;;;17.77;100.00;94976.09;5062596;28;20097;-84
2023/08/19 02:13:21;;;;;;;6.32;5.13;;;;;;;17.67;100.00;94976.56;5079720;28;20112;-82
2023/08/19 02:15:47;;;;;;;5.75;5.25;;;;;;;17.59;100.00;94981.28;5059487;28;20458;-82
2023/08/19 02:18:14;;;;;;;5.78;5.30;;;;;;;17.57;100.00;94978.06;5079399;28;20729;-82
2023/08/19 02:20:39;;;;;;;9.63;6.13;;;;;;;17.48;100.00;94990.59;5079763;28;20054;-85
2023/08/19 02:23:04;;;;;;;6.22;5.82;;;;;;;17.53;100.00;94997.81;5079159;28;20489;-83
2023/08/19 02:25:30;;;;;;;6.20;5.60;;;;;;;17.62;100.00;94993.97;5079863;28;20020;-83
2023/08/19 02:27:55;;;;;;;6.43;5.93;;;;;;;17.50;100.00;95009.50;5062026;28;20032;-82
2023/08/19 02:30:21;;;;;;;6.95;6.45;;;;;;;17.29;100.00;95015.91;5079490;28;20469;-85
2023/08/19 02:32:46;;;;;;;6.30;5.70;;;;;;;17.43;100.00;95015.81;5080878;28;20024;-84
2023/08/19 02:35:11;;;;;;;7.65;5.82;;;;;;;17.53;100.00;95019.56;5059378;28;20052;-86
2023/08/19 02:37:37;;;;;;;6.10;5.53;;;;;;;17.53;100.00;95008.31;5079781;28;20028;-83
2023/08/19 02:40:04;;;;;;;6.30;5.78;;;;;;;17.31;100.00;95010.44;5079123;28;20031;-84
2023/08/19 02:42:29;;;;;;;6.47;5.88;;;;;;;17.20;100.00;94996.22;5079891;28;20133;-87
2023/08/19 02:44:55;;;;;;;6.85;6.25;;;;;;;17.17;100.00;94995.81;5079385;28;20031;-86
2023/08/19 02:47:20;;;;;;;7.20;5.97;;;;;;;17.18;100.00;94985.13;5079447;28;20028;-85
2023/08/19 02:49:46;;;;;;;7.22;6.38;;;;;;;17.27;100.00;94998.78;5079266;28;20101;-85
2023/08/19 02:52:11;;;;;;;7.50;5.93;;;;;;;17.14;100.00;95004.09;5079451;28;20024;-85
2023/08/19 02:54:37;;;;;;;6.70;6.00;;;;;;;17.14;100.00;94999.69;5062755;28;20027;-86
2023/08/19 02:57:02;;;;;;;6.78;6.22;;;;;;;16.96;100.00;94998.75;5079767;28;20580;-86
2023/08/19 02:59:28;;;;;;;11.80;6.93;;;;;;;16.86;100.00;95004.41;5061889;28;20020;-85
2023/08/19 03:01:53;;;;;;;7.18;5.90;;;;;;;16.89;100.00;95009.22;5059018;28;20038;-87
2023/08/19 03:04:19;;;;;;;7.07;6.10;;;;;;;16.78;100.00;95009.91;5058545;28;20471;-85
2023/08/19 03:06:44;;;;;;;9.30;5.90;;;;;;;16.66;100.00;95016.78;5078448;28;20024;-86
2023/08/19 03:09:10;;;;;;;6.55;5.95;;;;;;;16.77;100.00;95014.31;5080291;28;20138;-87
2023/08/19 03:11:36;;;;;;;6.13;5.55;;;;;;;16.56;100.00;95022.44;5078686;28;20075;-88
2023/08/19 03:14:01;;;;;;;8.55;6.57;;;;;;;16.57;100.00;95018.81;5079788;28;20061;-86
2023/08/19 03:16:27;;;;;;;6.45;5.95;;;;;;;16.56;100.00;95024.25;5078445;28;20028;-89
2023/08/19 03:18:52;;;;;;;7.13;6.40;;;;;;;16.53;100.00;95007.16;5045403;28;20021;-86
2023/08/19 03:21:18;;;;;;;7.25;6.50;;;;;;;16.41;100.00;95024.44;5072597;28;20039;-84
2023/08/19 03:23:43;;;;;;;7.30;6.60;;;;;;;16.36;100.00;95032.13;5078716;28;20455;-85
2023/08/19 03:26:09;;;;;;;6.55;6.03;;;;;;;16.19;100.00;95041.38;5059008;28;20028;-87
2023/08/19 03:28:34;;;;;;;7.22;6.57;;;;;;;16.23;100.00;95064.31;5075580;28;20035;-83
2023/08/19 03:30:59;;;;;;;6.75;6.15;;;;;;;16.33;100.00;95048.22;5064396;28;20072;-85
2023/08/19 03:33:25;;;;;;;8.25;6.78;;;;;;;16.29;100.00;95066.09;5071511;28;20227;-88
2023/08/19 03:35:50;;;;;;;8.68;6.93;;;;;;;16.37;100.00;95054.66;5071534;28;20032;-83
2023/08/19 03:38:16;;;;;;;9.80;6.97;;;;;;;16.40;100.00;95058.66;5077993;28;20023;-84
2023/08/19 03:40:41;;;;;;;11.15;7.25;;;;;;;16.23;100.00;95051.22;5079889;28;20028;-81
2023/08/19 03:43:10;;;;;;;7.95;7.25;;;;;;;16.27;100.00;95060.28;5079061;28;20024;-85
2023/08/19 03:45:35;;;;;;;7.40;6.75;;;;;;;16.50;100.00;95038.13;5078026;28;20517;-85
2023/08/19 03:48:01;;;;;;;8.30;6.15;;;;;;;16.58;100.00;95024.84;5079065;28;20034;-85
2023/08/19 03:50:26;;;;;;;9.27;7.10;;;;;;;16.06;100.00;95047.41;5077374;28;20036;-85
2023/08/19 03:52:52;;;;;;;7.05;6.32;;;;;;;16.12;100.00;95064.91;5077930;28;20038;-87
2023/08/19 03:55:17;;;;;;;7.55;6.82;;;;;;;16.19;100.00;95081.38;5077010;28;20050;-85
2023/08/19 03:57:43;;;;;;;11.68;7.25;;;;;;;16.32;100.00;95057.84;5077045;28;20016;-87
2023/08/19 04:00:10;;;;;;;8.57;7.07;;;;;;;16.38;100.00;95051.00;5076938;28;20472;-86
2023/08/19 04:02:35;;;;;;;7.25;6.47;;;;;;;16.21;100.00;95053.22;5059249;28;20040;-84
2023/08/19 04:05:03;;;;;;;8.60;6.68;;;;;;;16.15;100.00;95072.34;5077160;28;20035;-84
2023/08/19 04:07:28;;;;;;;8.60;7.15;;;;;;;16.03;100.00;95087.00;5076685;28;20421;-85
2023/08/19 04:09:55;;;;;;;7.43;6.40;;;;;;;16.34;100.00;95070.75;5066670;28;20094;-85
2023/08/19 04:12:22;;;;;;;8.30;6.38;;;;;;;16.49;100.00;95049.59;5072511;28;20147;-84
2023/08/19 04:14:47;;;;;;;7.07;6.28;;;;;;;16.69;100.00;95045.16;5076883;28;20034;-84
2023/08/19 04:17:13;;;;;;;7.15;6.45;;;;;;;16.60;100.00;95041.94;5077966;28;20024;-82
2023/08/19 04:19:38;;;;;;;7.82;6.32;;;;;;;16.68;100.00;95030.44;5060865;28;20028;-84
2023/08/19 04:22:04;;;;;;;12.38;7.82;;;;;;;16.79;100.00;95033.22;5082328;28;20132;-85
2023/08/19 04:24:29;;;;;;;7.03;6.32;;;;;;;16.64;100.00;95027.44;5080805;28;20077;-84
2023/08/19 04:26:54;;;;;;;8.93;6.45;;;;;;;16.69;100.00;95026.84;5083608;28;20043;-83
2023/08/19 04:29:20;;;;;;;10.55;6.97;;;;;;;16.79;100.00;95032.44;5063587;28;20029;-83
2023/08/19 04:31:47;;;;;;;9.93;6.55;;;;;;;16.80;100.00;95023.56;5061145;28;20024;-83
2023/08/19 04:34:12;;;;;;;9.65;6.15;;;;;;;17.07;100.00;95004.13;5077726;28;20118;-84
2023/08/19 04:36:37;;;;;;;6.55;6.05;;;;;;;17.49;100.00;94994.03;5081419;28;20124;-83
2023/08/19 04:39:07;;;;;;;6.68;6.18;;;;;;;18.02;100.00;94963.78;5061225;28;20020;-82
2023/08/19 04:41:33;;;;;;;8.60;5.78;;;;;;;19.40;100.00;94918.31;5079856;28;20024;-82
2023/08/19 04:43:58;;;;;;;9.65;4.90;;;;;;;20.55;100.00;94892.19;5061922;28;20032;-82
2023/08/19 04:46:24;;;;;;;7.30;5.30;;;;;;;20.42;100.00;94898.53;5077861;28;20047;-82
2023/08/19 04:48:49;;;;;;;5.45;5.00;;;;;;;19.71;100.00;94898.81;5081792;28;20012;-83
2023/08/19 04:51:15;;;;;;;5.90;5.10;;;;;;;20.09;100.00;94897.53;5061832;28;20787;-81
2023/08/19 04:53:41;;;;;;;8.35;5.20;;;;;;;20.11;100.00;94896.28;5061354;28;20036;-82
2023/08/19 04:56:06;;;;;;;6.03;4.60;;;;;;;20.26;100.00;94901.88;5079224;28;20413;-81
2023/08/19 04:58:32;;;;;;;5.63;5.03;;;;;;;21.30;100.00;94899.94;5080978;28;20461;-80
2023/08/19 05:00:58;;;;;;;4.50;4.20;;;;;;;22.08;100.00;94894.56;5081132;28;20020;-82
2023/08/19 05:03:23;;;;;;;4.80;4.50;;;;;;;22.82;100.00;94895.00;5082017;28;20921;-81
2023/08/19 05:05:49;;;;;;;5.55;4.47;;;;;;;23.38;95.29;94899.75;5081088;28;20457;-81
2023/08/19 05:08:15;;;;;;;4.50;3.95;;;;;;;24.50;86.59;94891.56;5085184;28;20521;-83
2023/08/19 05:10:40;;;;;;;6.65;4.03;;;;;;;23.89;90.85;94894.91;5080278;28;20051;-83
2023/08/19 05:13:06;;;;;;;25.88;5.28;;;;;;;24.45;87.04;94891.53;5061031;28;20294;-82
2023/08/19 05:15:31;;;;;;;6.20;3.88;;;;;;;26.75;76.02;94882.31;5080982;28;20024;-82
2023/08/19 05:17:56;;;;;;;3.90;3.50;;;;;;;27.01;74.29;94888.34;5082319;28;20040;-83
2023/08/19 05:20:22;;;;;;;3.90;3.22;;;;;;;27.65;71.07;94896.97;5081742;28;20952;-81
2023/08/19 05:22:47;;;;;;;4.03;3.38;;;;;;;27.02;73.04;94893.41;5080902;28;20032;-83
2023/08/19 05:25:13;;;;;;;3.90;3.50;;;;;;;28.02;70.53;94893.75;5062058;28;20057;-82
2023/08/19 05:27:38;;;;;;;4.78;3.33;;;;;;;26.82;74.42;94888.19;5080472;28;20448;-82
2023/08/19 05:30:07;;;;;;;4.35;3.95;;;;;;;27.79;72.66;94897.16;5063470;28;20441;-83
2023/08/19 05:32:35;;;;;;;8.07;3.95;;;;;;;27.61;70.11;94892.50;5081642;28;20016;-82
2023/08/19 05:35:00;;;;;;;8.13;3.60;;;;;;;29.10;63.47;94890.41;5080211;28;20032;-81
2023/08/19 05:37:26;;;;;;;5.72;3.50;;;;;;;30.73;56.21;94884.78;5081821;28;20059;-82
2023/08/19 05:39:51;;;;;;;3.42;3.13;;;;;;;31.17;52.52;94894.06;5082130;28;20485;-82
2023/08/19 05:42:18;;;;;;;4.35;2.97;;;;;;;32.41;49.26;94892.44;5081568;28;20538;-82
2023/08/19 05:44:43;;;;;;;5.10;2.95;;;;;;;33.06;46.33;94890.63;5080365;28;20118;-82
2023/08/19 05:47:09;;;;;;;4.40;3.03;;;;;;;33.16;46.17;94897.63;5063416;28;20047;-82
2023/08/19 05:49:35;;;;;;;3.23;2.60;;;;;;;34.06;43.50;94898.56;5066289;28;20043;-82
2023/08/19 05:52:00;;;;;;;3.80;2.70;;;;;;;33.35;44.24;94904.28;5080068;28;20036;-81
2023/08/19 05:54:25;;;;;;;3.33;2.67;;;;;;;33.55;44.02;94910.13;5081080;28;20042;-81
2023/08/19 05:56:51;;;;;;;3.13;2.87;;;;;;;33.17;45.15;94915.31;5042716;28;20033;-82
2023/08/19 05:59:16;;;;;;;6.50;2.87;;;;;;;32.15;46.25;94911.88;5054045;28;20028;-81
2023/08/19 06:01:42;;;;;;;3.63;2.83;;;;;;;32.25;46.12;94921.56;5080953;28;20123;-82
2023/08/19 06:04:08;;;;;;;6.30;2.33;;;;;;;34.52;42.14;94914.00;5079490;28;20028;-82
2023/08/19 06:06:33;;;;;;;4.30;2.72;;;;;;;35.30;41.36;94915.22;5079800;28;20032;-81
2023/08/19 06:08:59;;;;;;;4.20;2.30;;;;;;;33.08;45.36;94915.25;5061361;28;20050;-79
2023/08/19 06:11:24;;;;;;;5.73;3.37;;;;;;;34.41;42.99;94918.94;5068410;28;20399;-83
2023/08/19 06:13:50;;;;;;;2.80;2.10;;;;;;;33.79;42.71;94913.94;5078486;28;20036;-81
2023/08/19 06:16:15;;;;;;;2.83;2.53;;;;;;;35.28;40.22;94906.66;5065398;28;20074;-81
2023/08/19 06:18:41;;;;;;;3.80;2.50;;;;;;;35.06;38.57;94920.41;5078466;28;20050;-83
2023/08/19 06:21:06;;;;;;;7.15;2.92;;;;;;;36.08;37.69;94918.13;5079018;28;20027;-81
2023/08/19 06:23:32;;;;;;;3.58;2.60;;;;;;;35.80;37.53;94915.19;5081524;28;20030;-84
2023/08/19 06:25:58;;;;;;;5.70;2.97;;;;;;;35.14;40.90;94911.50;5073728;28;20333;-82
2023/08/19 06:28:23;;;;;;;4.20;2.70;;;;;;;33.53;44.67;94917.72;5074269;28;20036;-82
2023/08/19 06:30:50;;;;;;;4.10;2.67;;;;;;;31.26;48.68;94916.34;5075190;28;20036;-81
2023/08/19 06:33:16;;;;;;;2.80;2.60;;;;;;;30.67;49.73;94920.75;5058052;28;20024;-81
2023/08/19 06:35:48;;;;;;;6.20;3.25;;;;;;;30.40;54.89;94911.94;5072378;28;20085;-82
2023/08/19 06:38:23;;;;;;;3.95;3.10;;;;;;;29.54;58.25;94905.31;5042386;28;20249;-84
2023/08/19 06:40:55;;;;;;;3.50;2.53;;;;;;;30.34;54.60;94911.97;5062064;28;20016;-81
2023/08/19 06:43:22;;;;;;;7.55;2.70;;;;;;;31.23;51.34;94900.91;5079856;28;20024;-80
2023/08/19 06:45:48;;;;;;;4.78;2.88;;;;;;;30.07;54.12;94903.91;5079082;28;20249;-81
2023/08/19 06:48:15;;;;;;;4.00;2.25;;;;;;;30.67;55.88;94909.25;5058846;28;20521;-82
2023/08/19 06:50:41;;;;;;;4.20;2.50;;;;;;;30.49;55.63;94902.91;5075234;28;20047;-82
2023/08/19 06:53:10;;;;;;;2.72;2.53;;;;;;;29.43;59.19;94893.97;5058734;28;20083;-81
2023/08/19 06:55:40;;;;;;;4.28;2.13;;;;;;;30.21;53.97;94903.94;5074041;28;20035;-79
2023/08/19 06:58:09;;;;;;;3.10;2.40;;;;;;;29.34;51.21;94895.72;5060302;28;20512;-81
2023/08/19 07:00:36;;;;;;;4.30;2.30;;;;;;;32.74;44.57;94899.06;5078604;28;20529;-81
2023/08/19 07:03:02;;;;;;;2.92;2.13;;;;;;;36.20;38.67;94901.94;5059415;28;20127;-82
2023/08/19 07:05:29;;;;;;;4.03;1.98;;;;;;;34.89;38.56;94899.75;5075715;28;20038;-82
2023/08/19 07:07:57;;;;;;;3.60;1.90;;;;;;;34.04;40.91;94898.88;5055990;28;20036;-82
2023/08/19 07:10:23;;;;;;;2.95;1.73;;;;;;;34.34;39.18;94891.72;5068283;28;20528;-82
2023/08/19 07:12:50;;;;;;;2.53;2.03;;;;;;;37.28;34.86;94898.56;5078975;28;20513;-84
2023/08/19 07:15:16;;;;;;;2.90;1.83;;;;;;;34.37;34.69;94891.06;5058829;28;20045;-81
2023/08/19 07:17:47;;;;;;;2.03;1.88;;;;;;;35.10;35.29;94883.63;5065084;28;20107;-87
2023/08/19 07:20:15;;;;;;;5.65;2.30;;;;;;;35.36;34.99;94884.25;5059298;28;20047;-88
2023/08/19 07:22:47;;;;;;;4.32;2.22;;;;;;;34.75;34.54;94885.72;5078925;28;20036;-88
2023/08/19 07:25:13;;;;;;;6.07;2.22;;;;;;;33.06;38.86;94887.16;5061100;28;20417;-86
2023/08/19 07:27:39;;;;;;;3.45;2.17;;;;;;;31.01;43.30;94882.91;5080319;28;20029;-84
2023/08/19 07:30:04;;;;;;;3.47;2.47;;;;;;;31.63;44.42;94878.56;5069629;28;20417;-81
2023/08/19 07:32:34;;;;;;;4.10;2.25;;;;;;;32.38;43.94;94872.38;5059643;28;20040;-83
2023/08/19 07:35:00;;;;;;;3.70;2.08;;;;;;;32.57;43.45;94872.16;5052960;28;20029;-86
2023/08/19 07:37:25;;;;;;;2.58;2.30;;;;;;;30.29;44.56;94881.88;5066967;28;20488;-82
2023/08/19 07:39:53;;;;;;;6.82;2.72;;;;;;;30.81;44.90;94877.94;5067976;28;20028;-85
2023/08/19 07:42:18;;;;;;;7.88;2.20;;;;;;;31.20;44.27;94880.88;5076237;28;20075;-84
2023/08/19 07:44:44;;;;;;;3.13;2.60;;;;;;;29.38;46.02;94878.00;5043479;28;20060;-84
2023/08/19 07:47:10;;;;;;;4.13;2.28;;;;;;;31.59;44.81;94874.91;5055875;28;20485;-84
2023/08/19 07:49:37;;;;;;;4.15;2.17;;;;;;;29.71;46.63;94873.50;5074143;28;20127;-82
2023/08/19 07:52:03;;;;;;;4.60;2.22;;;;;;;29.36;47.65;94874.06;5080850;28;20039;-86
2023/08/19 07:54:29;;;;;;;7.40;2.60;;;;;;;29.68;47.76;94872.22;5079720;28;20028;-88
2023/08/19 07:56:57;;;;;;;2.20;2.10;;;;;;;30.05;46.26;94874.03;5065506;28;20020;-86
2023/08/19 07:59:23;;;;;;;;;;;;;;;29.51;47.99;94882.63;5082642;28;20103;-83
2023/08/19 08:01:48;;;;;;;3.22;2.30;;;;;;;29.69;47.70;94883.69;5082025;28;20448;-84
2023/08/19 08:04:13;;;;;;;5.32;2.20;;;;;;;28.52;49.14;94880.97;5065469;28;20032;-86
2023/08/19 08:06:39;;;;;;;4.55;2.33;;;;;;;29.85;47.58;94886.94;5072336;28;20027;-90
2023/08/19 08:09:04;;;;;;;4.00;2.45;;;;;;;29.70;47.18;94879.94;5082177;28;20443;-85
2023/08/19 08:11:30;;;;;;;2.95;2.13;;;;;;;29.36;46.99;94880.19;5065877;28;20040;-82
2023/08/19 08:13:56;;;;;;;3.40;2.20;;;;;;;29.42;46.02;94886.25;5081055;28;20501;-86
2023/08/19 08:16:21;;;;;;;2.92;2.20;;;;;;;29.25;46.79;94886.78;5083080;28;20077;-83
2023/08/19 08:18:47;;;;;;;3.03;1.98;;;;;;;28.49;47.77;94889.53;5082651;28;20497;-88
2023/08/19 08:21:14;;;;;;;3.05;2.55;;;;;;;28.11;48.35;94889.41;5082074;28;20060;-83
2023/08/19 08:23:41;;;;;;;2.30;2.10;;;;;;;29.00;47.76;94897.75;5065476;28;20028;-83
2023/08/19 08:26:06;;;;;;;2.50;1.88;;;;;;;28.98;47.56;94883.91;5065218;28;20061;-83
2023/08/19 08:28:32;;;;;;;8.90;1.98;;;;;;;28.45;49.61;94881.31;5081791;28;20024;-81
2023/08/19 08:30:58;;;;;;;6.03;2.50;;;;;;;28.18;49.54;94884.56;5081717;28;20114;-87
2023/08/19 08:33:23;;;;;;;3.97;2.30;;;;;;;28.35;49.20;94875.34;5064355;28;20024;-82
2023/08/19 08:35:49;;;;;;;4.43;2.10;;;;;;;28.10;50.37;94889.69;5064113;28;20028;-85
2023/08/19 08:38:14;;;;;;;4.35;2.33;;;;;;;28.98;49.21;94881.25;5065163;28;20093;-83
2023/08/19 08:40:40;;;;;;;6.93;2.50;;;;;;;28.77;50.19;94883.38;5063681;28;20020;-83
2023/08/19 08:43:06;;;;;;;4.68;2.28;;;;;;;28.80;50.99;94882.03;5064695;28;20032;-85
2023/08/19 08:45:32;;;;;;;4.85;2.30;;;;;;;28.29;52.03;94884.47;5081362;28;20036;-84
2023/08/19 08:48:00;;;;;;;4.45;2.28;;;;;;;29.00;50.60;94893.22;5061239;28;20074;-86
2023/08/19 08:50:25;;;;;;;7.57;2.27;;;;;;;28.48;50.78;94887.97;5058778;28;20065;-81
2023/08/19 08:52:51;;;;;;;2.28;1.90;;;;;;;28.30;49.33;94888.69;5072140;28;20036;-82
2023/08/19 08:55:17;;;;;;;7.25;2.42;;;;;;;28.43;49.34;94888.81;5061623;28;20081;-82
2023/08/19 08:57:42;;;;;;;4.55;2.30;;;;;;;29.15;49.28;94890.34;5056137;28;20033;-84
2023/08/19 09:00:11;;;;;;;6.07;2.53;;;;;;;28.38;50.04;94888.88;5060987;28;20055;-83
2023/08/19 09:02:38;;;;;;;2.25;2.05;;;;;;;29.05;48.83;94887.03;5074983;28;20035;-81
2023/08/19 09:05:05;;;;;;;3.50;2.20;;;;;;;29.11;50.13;94885.88;5079992;28;20038;-85
2023/08/19 09:07:40;;;;;;;8.18;2.67;;;;;;;28.50;49.58;94893.81;5071511;28;20063;-83
2023/08/19 09:10:13;;;;;;;10.13;2.60;;;;;;;28.58;50.50;94893.16;5080493;28;20156;-83
2023/08/19 09:12:41;;;;;;;3.38;2.13;;;;;;;28.05;52.58;94887.06;5064310;28;20016;-83
2023/08/19 09:15:07;;;;;;;9.20;2.63;;;;;;;28.57;51.30;94883.59;5065721;28;20452;-86
2023/08/19 09:17:33;;;;;;;6.78;2.17;;;;;;;28.39;50.97;94874.47;5069177;28;20413;-86
2023/08/19 09:20:00;;;;;;;3.25;2.13;;;;;;;28.75;50.67;94890.88;5074828;28;20032;-86
2023/08/19 09:22:25;;;;;;;3.85;2.30;;;;;;;28.62;50.22;94888.88;5081368;28;20034;-89
2023/08/19 09:24:54;;;;;;;5.38;2.20;;;;;;;28.95;50.76;94885.28;5081172;28;20028;-84
2023/08/19 09:27:31;;;;;;;4.68;2.20;;;;;;;28.03;51.88;94883.88;5066145;28;20032;-82
2023/08/19 09:29:58;;;;;;;4.57;2.60;;;;;;;28.26;52.24;94877.81;5081375;28;20031;-86
2023/08/19 09:32:33;;;;;;;2.47;2.15;;;;;;;28.47;52.33;94879.19;5063835;28;20024;-83
2023/08/19 09:35:03;;;;;;;5.00;2.60;;;;;;;28.47;51.71;94879.19;5080690;28;20035;-81
2023/08/19 09:37:33;;;;;;;11.10;2.40;;;;;;;28.91;51.57;94875.47;5080433;28;20017;-83
2023/08/19 09:39:58;;;;;;;3.95;2.45;;;;;;;28.68;49.72;94874.41;5078744;28;20031;-86
2023/08/19 09:42:24;;;;;;;2.58;2.38;;;;;;;28.29;50.46;94879.91;5077534;28;20028;-84
2023/08/19 09:44:50;;;;;;;2.83;2.47;;;;;;;28.88;48.89;94873.38;5079465;28;20028;-82
2023/08/19 09:47:16;;;;;;;4.13;2.08;;;;;;;29.22;49.65;94866.75;5062943;28;20060;-85
2023/08/19 09:49:41;;;;;;;2.78;2.55;;;;;;;29.44;48.69;94868.06;5073109;28;20052;-84
2023/08/19 09:52:15;;;;;;;2.95;1.80;;;;;;;29.78;45.75;94872.06;5078416;28;20067;-83
2023/08/19 09:54:41;;;;;;;4.75;2.03;;;;;;;29.94;45.89;94863.78;5078194;28;20022;-84
2023/08/19 09:57:06;;;;;;;4.40;2.20;;;;;;;30.21;44.85;94867.28;5077759;28;20024;-88
2023/08/19 09:59:32;;;;;;;3.58;2.03;;;;;;;29.75;44.54;94847.78;5077255;28;20516;-84
2023/08/19 10:01:59;;;;;;;3.25;2.10;;;;;;;29.95;44.45;94854.69;5061322;28;20036;-84
2023/08/19 10:04:25;;;;;;;5.78;2.30;;;;;;;30.17;43.44;94857.50;5079902;28;20024;-86
2023/08/19 10:06:51;;;;;;;4.78;2.38;;;;;;;29.66;43.20;94861.03;5059420;28;20035;-86
2023/08/19 10:09:26;;;;;;;6.40;2.30;;;;;;;29.86;44.53;94851.13;5059389;28;20028;-81
2023/08/19 10:11:55;;;;;;;1.90;1.80;;;;;;;30.26;44.58;94850.38;5062269;28;20126;-83
2023/08/19 10:14:30;;;;;;;4.25;2.03;;;;;;;30.22;43.04;94847.50;5062847;28;20654;-82
2023/08/19 10:16:58;;;;;;;4.50;2.10;;;;;;;30.28;42.12;94848.97;5076715;28;20035;-83
2023/08/19 10:19:23;;;;;;;3.65;2.03;;;;;;;31.04;42.88;94854.72;5079563;28;20020;-84
2023/08/19 10:21:51;;;;;;;4.22;1.92;;;;;;;30.32;41.18;94844.63;5080528;28;20035;-85
2023/08/19 10:24:17;;;;;;;3.78;2.03;;;;;;;30.14;41.99;94855.41;5079683;28;20454;-87
2023/08/19 10:26:51;;;;;;;4.35;1.95;;;;;;;30.66;41.70;94857.66;5062559;28;20024;-84
2023/08/19 10:29:17;;;;;;;1.92;1.73;;;;;;;30.71;41.11;94844.16;5063454;28;20031;-85
2023/08/19 10:31:42;;;;;;;2.58;2.10;;;;;;;30.71;42.44;94849.50;5062788;28;20024;-84
2023/08/19 10:34:28;;;;;;;2.20;2.00;;;;;;;30.81;42.18;94854.66;5059432;28;20125;-83
2023/08/19 10:37:06;;;;;;;3.83;2.20;;;;;;;30.12;40.42;94841.53;5073411;28;20024;-85
2023/08/19 10:39:32;;;;;;;;;;;;;;;31.05;42.37;94851.75;5084065;28;20127;-84
2023/08/19 10:41:57;;;;;;;6.37;2.20;;;;;;;30.52;41.35;94840.00;5058107;28;20018;-85
2023/08/19 10:44:27;;;;;;;5.05;2.10;;;;;;;30.19;42.09;94840.06;5075698;28;20274;-83
2023/08/19 10:47:10;;;;;;;6.97;2.30;;;;;;;30.25;42.75;94849.59;5063717;28;20342;-84
2023/08/19 10:49:36;;;;;;;2.20;1.85;;;;;;;30.61;41.93;94844.34;5079135;28;20035;-84
2023/08/19 10:52:05;;;;;;;2.72;1.70;;;;;;;30.26;40.90;94847.69;5063343;28;20039;-82
2023/08/19 10:54:40;;;;;;;5.88;2.25;;;;;;;30.56;40.56;94841.00;5062711;28;20097;-83
2023/08/19 10:57:15;;;;;;;2.35;2.00;;;;;;;31.15;40.59;94838.13;5065213;28;20123;-83
2023/08/19 10:59:43;;;;;;;2.40;1.85;;;;;;;30.43;41.86;94845.28;5049508;28;20417;-82
2023/08/19 11:02:10;;;;;;;2.92;1.88;;;;;;;30.58;41.11;94834.25;5058474;28;20034;-83
2023/08/19 11:04:43;;;;;;;3.67;2.38;;;;;;;30.64;41.21;94841.09;5044781;28;20064;-85
2023/08/19 11:07:09;;;;;;;2.30;2.10;;;;;;;30.54;42.39;94843.16;5075304;28;20028;-83
2023/08/19 11:09:35;;;;;;;3.13;2.30;;;;;;;30.11;41.79;94838.09;5059724;28;20077;-85
2023/08/19 11:12:00;;;;;;;2.28;2.10;;;;;;;30.27;42.86;94835.94;5052408;28;20032;-83
2023/08/19 11:14:26;;;;;;;5.22;2.08;;;;;;;30.61;42.44;94838.22;5061818;28;20038;-82
2023/08/19 11:16:53;;;;;;;2.67;1.90;;;;;;;30.69;42.11;94835.66;5056001;28;20020;-83
2023/08/19 11:19:19;;;;;;;2.10;1.80;;;;;;;31.24;42.05;94835.53;5048921;28;20043;-84
2023/08/19 11:21:45;;;;;;;2.75;1.92;;;;;;;30.74;41.83;94837.41;5050751;28;20043;-84
2023/08/19 11:24:13;;;;;;;3.60;2.30;;;;;;;31.27;40.95;94834.94;5046591;28;20452;-87
2023/08/19 11:26:40;;;;;;;2.45;2.25;;;;;;;30.27;42.08;94833.25;5049367;28;20038;-85
2023/08/19 11:29:08;;;;;;;3.10;2.08;;;;;;;31.70;41.69;94833.38;5061981;28;20113;-85